createdAt,value
2023-05-01T00:01:50.747Z,95.10
2023-05-01T00:04:18.060Z,94.70
2023-05-01T00:06:45.118Z,94.80
2023-05-01T00:09:12.074Z,94.80
2023-05-01T00:11:39.051Z,94.80
2023-05-01T00:14:05.877Z,95.10
2023-05-01T00:16:32.748Z,95.20
2023-05-01T00:19:06.596Z,94.70
2023-05-01T00:21:33.384Z,94.80
2023-05-01T00:24:00.109Z,95.30
2023-05-01T00:26:30.542Z,95.00
2023-05-01T00:28:58.215Z,95.20
2023-05-01T00:31:25.746Z,95.30
2023-05-01T00:33:52.857Z,95.70
2023-05-01T00:36:19.659Z,95.50
2023-05-01T00:38:46.621Z,95.40
2023-05-01T00:41:13.558Z,95.60
2023-05-01T00:43:40.429Z,95.60
2023-05-01T00:46:08.144Z,95.50
2023-05-01T00:48:35.500Z,95.90
2023-05-01T00:51:04.684Z,95.80
2023-05-01T00:53:33.234Z,95.40
2023-05-01T00:56:01.095Z,96.10
2023-05-01T00:58:27.937Z,95.90
2023-05-01T01:00:55.089Z,95.60
2023-05-01T01:03:22.025Z,96.00
2023-05-01T01:05:53.463Z,95.60
2023-05-01T01:08:23.854Z,95.60
2023-05-01T01:10:57.115Z,95.60
2023-05-01T01:13:29.939Z,95.70
2023-05-01T01:16:15.483Z,96.00
2023-05-01T01:18:48.634Z,95.60
2023-05-01T01:21:35.610Z,95.90
2023-05-01T01:24:11.449Z,96.10
2023-05-01T01:26:50.455Z,96.00
2023-05-01T01:29:20.573Z,96.00
2023-05-01T01:31:59.943Z,96.40
2023-05-01T01:34:28.194Z,96.30
2023-05-01T01:37:03.569Z,96.50
2023-05-01T01:39:36.202Z,96.60
2023-05-01T01:42:03.920Z,96.90
2023-05-01T01:44:34.834Z,96.50
2023-05-01T01:47:04.999Z,96.60
2023-05-01T01:49:33.187Z,96.30
2023-05-01T01:52:02.322Z,96.40
2023-05-01T01:54:40.475Z,96.50
2023-05-01T01:57:08.191Z,96.40
2023-05-01T01:59:35.377Z,96.20
2023-05-01T02:02:03.412Z,96.10
2023-05-01T02:04:31.627Z,96.40
2023-05-01T02:06:59.956Z,96.30
2023-05-01T02:09:28.157Z,96.30
2023-05-01T02:11:56.104Z,96.30
2023-05-01T02:14:25.226Z,96.60
2023-05-01T02:16:52.623Z,96.50
2023-05-01T02:19:21.269Z,96.40
2023-05-01T02:21:48.643Z,96.40
2023-05-01T02:24:15.742Z,96.60
2023-05-01T02:26:44.269Z,96.50
2023-05-01T02:29:11.264Z,96.60
2023-05-01T02:31:38.388Z,96.90
2023-05-01T02:34:05.394Z,96.60
2023-05-01T02:36:33.583Z,96.50
2023-05-01T02:39:00.980Z,96.70
2023-05-01T02:41:28.287Z,96.50
2023-05-01T02:43:57.792Z,96.80
2023-05-01T02:46:26.318Z,96.80
2023-05-01T02:48:53.983Z,96.90
2023-05-01T02:51:21.118Z,97.00
2023-05-01T02:53:48.150Z,97.20
2023-05-01T02:56:14.969Z,97.10
2023-05-01T02:58:42.224Z,97.30
2023-05-01T03:01:09.130Z,97.40
2023-05-01T03:03:36.223Z,97.20
2023-05-01T03:06:03.375Z,97.40
2023-05-01T03:08:30.411Z,97.50
2023-05-01T03:10:57.173Z,97.40
2023-05-01T03:13:24.000Z,97.40
2023-05-01T03:15:51.004Z,97.30
2023-05-01T03:18:17.777Z,97.20
2023-05-01T03:20:51.586Z,97.40
2023-05-01T03:23:18.462Z,97.20
2023-05-01T03:25:45.747Z,97.10
2023-05-01T03:28:12.568Z,97.10
2023-05-01T03:30:39.358Z,97.00
2023-05-01T03:33:06.454Z,96.80
2023-05-01T03:35:33.501Z,96.60
2023-05-01T03:38:00.482Z,96.70
2023-05-01T03:40:27.401Z,96.30
2023-05-01T03:42:54.368Z,96.30
2023-05-01T03:45:21.111Z,96.40
2023-05-01T03:47:47.918Z,96.40
2023-05-01T03:50:14.833Z,96.30
2023-05-01T03:52:41.611Z,96.30
2023-05-01T03:55:08.955Z,96.20
2023-05-01T03:57:35.817Z,96.10
2023-05-01T04:00:03.423Z,96.00
2023-05-01T04:02:30.305Z,95.70
2023-05-01T04:04:57.687Z,95.80
2023-05-01T04:07:24.641Z,96.00
2023-05-01T04:09:51.526Z,95.60
2023-05-01T04:12:18.510Z,95.70
2023-05-01T04:14:45.709Z,95.80
2023-05-01T04:17:12.741Z,95.70
2023-05-01T04:19:39.844Z,95.90
2023-05-01T04:22:06.751Z,95.70
2023-05-01T04:24:33.672Z,95.70
2023-05-01T04:27:00.900Z,95.60
2023-05-01T04:29:27.802Z,95.40
2023-05-01T04:31:54.725Z,95.60
2023-05-01T04:34:21.541Z,95.60
2023-05-01T04:36:48.444Z,95.30
2023-05-01T04:39:15.832Z,95.30
2023-05-01T04:41:42.911Z,95.40
2023-05-01T04:44:09.674Z,95.40
2023-05-01T04:46:36.490Z,95.30
2023-05-01T04:49:03.317Z,95.40
2023-05-01T04:51:30.263Z,95.20
2023-05-01T04:53:57.419Z,95.10
2023-05-01T04:56:25.027Z,95.20
2023-05-01T04:58:52.047Z,95.30
2023-05-01T05:01:18.840Z,95.00
2023-05-01T05:03:48.833Z,94.90
2023-05-01T05:06:16.999Z,94.90
2023-05-01T05:08:43.912Z,95.10
2023-05-01T05:11:11.197Z,95.20
2023-05-01T05:13:37.991Z,95.40
2023-05-01T05:16:05.167Z,95.20
2023-05-01T05:18:32.184Z,95.30
2023-05-01T05:20:59.701Z,95.20
2023-05-01T05:23:26.888Z,95.10
2023-05-01T05:25:53.808Z,95.10
2023-05-01T05:28:20.515Z,95.20
2023-05-01T05:30:47.488Z,95.20
2023-05-01T05:33:14.460Z,95.30
2023-05-01T05:35:41.223Z,95.10
2023-05-01T05:38:08.028Z,95.00
2023-05-01T05:40:34.917Z,95.00
2023-05-01T05:43:01.857Z,94.90
2023-05-01T05:45:29.419Z,94.90
2023-05-01T05:47:56.331Z,94.80
2023-05-01T05:50:23.302Z,94.60
2023-05-01T05:52:50.330Z,94.40
2023-05-01T05:55:17.215Z,94.60
2023-05-01T05:57:44.044Z,94.50
2023-05-01T06:00:11.142Z,94.00
2023-05-01T06:02:38.292Z,94.00
2023-05-01T06:05:05.472Z,93.60
2023-05-01T06:07:32.518Z,93.60
2023-05-01T06:10:04.299Z,93.10
2023-05-01T06:12:31.927Z,93.20
2023-05-01T06:14:59.487Z,93.10
2023-05-01T06:17:26.852Z,93.10
2023-05-01T06:19:54.031Z,92.90
2023-05-01T06:22:20.908Z,92.70
2023-05-01T06:24:47.828Z,92.50
2023-05-01T06:27:14.731Z,92.80
2023-05-01T06:29:41.662Z,93.10
2023-05-01T06:32:08.673Z,92.50
2023-05-01T06:34:35.831Z,92.70
2023-05-01T06:37:05.228Z,92.90
2023-05-01T06:39:32.298Z,92.90
2023-05-01T06:41:59.390Z,92.60
2023-05-01T06:44:26.263Z,92.50
2023-05-01T06:46:53.258Z,92.50
2023-05-01T06:49:20.114Z,92.70
2023-05-01T06:51:47.004Z,92.40
2023-05-01T06:54:13.944Z,92.10
2023-05-01T06:56:40.884Z,91.80
2023-05-01T06:59:07.786Z,91.60
2023-05-01T07:01:35.716Z,91.20
2023-05-01T07:04:04.094Z,91.10
2023-05-01T07:06:32.362Z,91.20
2023-05-01T07:08:59.329Z,90.90
2023-05-01T07:11:26.993Z,90.70
2023-05-01T07:13:54.430Z,90.90
2023-05-01T07:16:21.721Z,90.70
2023-05-01T07:18:51.130Z,90.40
2023-05-01T07:21:18.027Z,90.20
2023-05-01T07:23:44.986Z,89.50
2023-05-01T07:26:11.726Z,90.10
2023-05-01T07:28:38.952Z,89.10
2023-05-01T07:31:05.861Z,89.50
2023-05-01T07:33:32.641Z,89.80
2023-05-01T07:35:59.414Z,88.60
2023-05-01T07:38:27.117Z,90.30
2023-05-01T07:40:53.958Z,89.00
2023-05-01T07:43:20.771Z,89.10
2023-05-01T07:45:58.319Z,88.00
2023-05-01T07:48:25.346Z,88.30
2023-05-01T07:50:52.156Z,88.60
2023-05-01T07:53:19.033Z,88.80
2023-05-01T07:55:45.959Z,87.90
2023-05-01T07:58:12.780Z,86.40
2023-05-01T08:00:39.769Z,87.40
2023-05-01T08:03:06.755Z,87.10
2023-05-01T08:05:33.906Z,87.40
2023-05-01T08:08:00.798Z,85.40
2023-05-01T08:10:29.593Z,87.10
2023-05-01T08:12:56.417Z,86.70
2023-05-01T08:15:23.934Z,86.30
2023-05-01T08:17:51.470Z,86.80
2023-05-01T08:20:18.242Z,85.50
2023-05-01T08:22:45.242Z,85.00
2023-05-01T08:25:11.980Z,85.20
2023-05-01T08:27:38.864Z,85.30
2023-05-01T08:30:05.972Z,85.10
2023-05-01T08:32:33.607Z,85.70
2023-05-01T08:35:00.527Z,85.40
2023-05-01T08:37:27.661Z,86.10
2023-05-01T08:39:54.671Z,87.60
2023-05-01T08:42:21.615Z,87.70
2023-05-01T08:44:49.462Z,88.30
2023-05-01T08:47:17.075Z,88.70
2023-05-01T08:49:44.357Z,89.90
2023-05-01T08:52:12.231Z,90.00
2023-05-01T08:54:45.646Z,90.90
2023-05-01T08:57:12.967Z,90.60
2023-05-01T08:59:40.584Z,90.70
2023-05-01T09:02:08.581Z,90.80
2023-05-01T09:04:37.209Z,90.90
2023-05-01T09:07:04.985Z,91.00
2023-05-01T09:09:32.360Z,90.70
2023-05-01T09:12:17.761Z,90.70
2023-05-01T09:14:45.287Z,90.60
2023-05-01T09:17:12.540Z,90.30
2023-05-01T09:19:40.937Z,91.00
2023-05-01T09:22:08.098Z,90.00
2023-05-01T09:24:34.836Z,90.70
2023-05-01T09:27:01.821Z,90.30
2023-05-01T09:29:37.872Z,90.30
2023-05-01T09:32:13.821Z,88.70
2023-05-01T09:34:40.808Z,89.80
2023-05-01T09:37:07.740Z,88.20
2023-05-01T09:39:34.732Z,89.20
2023-05-01T09:42:03.452Z,89.80
2023-05-01T09:44:30.704Z,89.70
2023-05-01T09:46:57.561Z,88.50
2023-05-01T09:49:44.358Z,88.40
2023-05-01T09:52:11.846Z,89.20
2023-05-01T09:54:38.604Z,86.70
2023-05-01T09:57:06.381Z,88.30
2023-05-01T09:59:35.073Z,88.60
2023-05-01T10:02:02.086Z,88.90
2023-05-01T10:04:35.159Z,86.90
2023-05-01T10:07:14.766Z,87.40
2023-05-01T10:09:42.517Z,85.80
2023-05-01T10:12:09.409Z,89.10
2023-05-01T10:14:49.596Z,86.40
2023-05-01T10:17:20.029Z,85.90
2023-05-01T10:19:50.089Z,84.50
2023-05-01T10:22:16.982Z,88.00
2023-05-01T10:24:45.550Z,85.40
2023-05-01T10:27:13.508Z,85.70
2023-05-01T10:29:42.092Z,85.50
2023-05-01T10:32:09.698Z,85.10
2023-05-01T10:34:38.734Z,85.20
2023-05-01T10:37:09.784Z,84.80
2023-05-01T10:39:36.741Z,85.60
2023-05-01T10:42:11.310Z,85.60
2023-05-01T10:44:38.600Z,86.80
2023-05-01T10:47:24.024Z,84.60
2023-05-01T10:50:09.566Z,86.40
2023-05-01T10:52:55.234Z,84.20
2023-05-01T10:55:42.982Z,85.50
2023-05-01T10:58:10.568Z,84.30
2023-05-01T11:00:37.611Z,82.80
2023-05-01T11:03:22.572Z,83.60
2023-05-01T11:06:04.696Z,85.20
2023-05-01T11:08:38.888Z,82.50
2023-05-01T11:11:26.384Z,84.00
2023-05-01T11:13:59.465Z,85.70
2023-05-01T11:16:46.972Z,83.20
2023-05-01T11:19:22.858Z,89.30
2023-05-01T11:21:50.745Z,83.00
2023-05-01T11:24:18.961Z,83.70
2023-05-01T11:26:46.082Z,85.50
2023-05-01T11:29:12.933Z,88.20
2023-05-01T11:31:39.959Z,87.90
2023-05-01T11:34:07.284Z,84.90
2023-05-01T11:36:49.278Z,83.70
2023-05-01T11:39:17.519Z,83.70
2023-05-01T11:41:44.341Z,84.70
2023-05-01T11:44:17.861Z,84.40
2023-05-01T11:46:44.696Z,84.00
2023-05-01T11:49:11.516Z,83.50
2023-05-01T11:51:38.445Z,85.40
2023-05-01T11:54:06.296Z,85.60
2023-05-01T11:56:33.910Z,84.90
2023-05-01T11:59:09.610Z,83.50
2023-05-01T12:01:37.221Z,81.90
2023-05-01T12:04:04.360Z,81.30
2023-05-01T12:06:45.158Z,81.10
2023-05-01T12:09:19.157Z,82.30
2023-05-01T12:11:47.477Z,82.00
2023-05-01T12:14:15.199Z,82.20
2023-05-01T12:16:42.460Z,82.80
2023-05-01T12:19:09.939Z,82.20
2023-05-01T12:21:36.844Z,84.70
2023-05-01T12:24:18.195Z,82.90
2023-05-01T12:26:45.553Z,86.20
2023-05-01T12:29:12.637Z,84.20
2023-05-01T12:31:46.801Z,84.40
2023-05-01T12:34:13.667Z,85.60
2023-05-01T12:36:40.609Z,85.90
2023-05-01T12:39:11.744Z,85.10
2023-05-01T12:41:45.504Z,85.20
2023-05-01T12:44:19.212Z,86.60
2023-05-01T12:46:47.580Z,87.50
2023-05-01T12:49:18.830Z,88.10
2023-05-01T12:51:52.547Z,87.30
2023-05-01T12:54:23.021Z,87.40
2023-05-01T12:56:50.597Z,86.90
2023-05-01T12:59:22.123Z,89.60
2023-05-01T13:01:49.540Z,89.40
2023-05-01T13:04:22.945Z,88.00
2023-05-01T13:06:50.038Z,90.30
2023-05-01T13:09:17.833Z,90.00
2023-05-01T13:11:56.047Z,89.50
2023-05-01T13:14:23.250Z,88.00
2023-05-01T13:16:51.228Z,88.70
2023-05-01T13:19:28.902Z,89.20
2023-05-01T13:21:56.893Z,88.70
2023-05-01T13:24:40.097Z,90.30
2023-05-01T13:27:10.253Z,89.20
2023-05-01T13:29:37.853Z,89.80
2023-05-01T13:32:06.067Z,88.60
2023-05-01T13:34:33.582Z,88.10
2023-05-01T13:37:01.284Z,89.30
2023-05-01T13:39:28.207Z,89.60
2023-05-01T13:41:55.085Z,89.20
2023-05-01T13:44:22.627Z,90.00
2023-05-01T13:46:50.524Z,90.20
2023-05-01T13:49:20.933Z,90.00
2023-05-01T13:51:48.840Z,90.40
2023-05-01T13:54:16.899Z,90.70
2023-05-01T13:56:43.676Z,89.50
2023-05-01T13:59:10.821Z,90.80
2023-05-01T14:01:42.953Z,91.20
2023-05-01T14:04:11.289Z,89.50
2023-05-01T14:06:42.600Z,90.10
2023-05-01T14:09:09.446Z,90.30
2023-05-01T14:11:46.930Z,90.30
2023-05-01T14:14:17.346Z,90.00
2023-05-01T14:16:48.098Z,90.60
2023-05-01T14:19:16.354Z,90.60
2023-05-01T14:21:43.134Z,91.10
2023-05-01T14:24:10.310Z,90.70
2023-05-01T14:26:40.404Z,91.00
2023-05-01T14:29:09.270Z,91.10
2023-05-01T14:31:36.582Z,91.90
2023-05-01T14:34:04.877Z,91.90
2023-05-01T14:36:32.797Z,91.20
2023-05-01T14:39:00.828Z,92.20
2023-05-01T14:41:27.895Z,92.30
2023-05-01T14:43:54.873Z,92.30
2023-05-01T14:46:32.480Z,92.20
2023-05-01T14:49:00.345Z,92.20
2023-05-01T14:51:27.382Z,92.00
2023-05-01T14:53:54.604Z,92.00
2023-05-01T14:56:21.651Z,93.40
2023-05-01T14:58:49.021Z,92.50
2023-05-01T15:01:16.127Z,92.20
2023-05-01T15:03:43.946Z,92.60
2023-05-01T15:06:11.379Z,92.80
2023-05-01T15:08:38.909Z,93.70
2023-05-01T15:11:05.747Z,93.10
2023-05-01T15:13:32.648Z,93.70
2023-05-01T15:15:59.678Z,93.90
2023-05-01T15:18:26.705Z,93.30
2023-05-01T15:20:53.582Z,93.40
2023-05-01T15:23:20.675Z,93.20
2023-05-01T15:25:48.016Z,93.60
2023-05-01T15:28:14.928Z,93.80
2023-05-01T15:30:46.528Z,93.80
2023-05-01T15:33:16.964Z,94.00
2023-05-01T15:35:46.163Z,93.80
2023-05-01T15:38:12.999Z,93.60
2023-05-01T15:40:39.941Z,94.00
2023-05-01T15:43:06.757Z,94.40
2023-05-01T15:45:33.893Z,94.50
2023-05-01T15:48:01.150Z,94.90
2023-05-01T15:50:28.359Z,94.70
2023-05-01T15:52:55.188Z,94.80
2023-05-01T15:55:22.112Z,94.90
2023-05-01T15:57:48.961Z,94.90
2023-05-01T16:00:17.052Z,95.10
2023-05-01T16:02:44.726Z,95.40
2023-05-01T16:05:12.340Z,95.40
2023-05-01T16:07:39.310Z,95.60
2023-05-01T16:10:07.444Z,95.60
2023-05-01T16:12:34.298Z,95.60
2023-05-01T16:15:04.567Z,95.90
2023-05-01T16:17:32.952Z,95.80
2023-05-01T16:20:00.686Z,95.80
2023-05-01T16:22:28.520Z,95.70
2023-05-01T16:24:55.465Z,95.80
2023-05-01T16:27:22.883Z,95.50
2023-05-01T16:29:50.149Z,95.60
2023-05-01T16:32:17.131Z,95.60
2023-05-01T16:34:44.150Z,95.90
2023-05-01T16:37:13.362Z,96.10
2023-05-01T16:39:40.162Z,96.30
2023-05-01T16:42:07.253Z,96.50
2023-05-01T16:44:35.620Z,95.80
2023-05-01T16:47:03.612Z,96.10
2023-05-01T16:49:30.458Z,95.80
2023-05-01T16:51:58.621Z,95.90
2023-05-01T16:54:31.995Z,95.90
2023-05-01T16:56:59.589Z,96.20
2023-05-01T16:59:28.158Z,95.90
2023-05-01T17:01:55.174Z,95.90
2023-05-01T17:04:22.330Z,96.00
2023-05-01T17:06:49.204Z,96.20
2023-05-01T17:09:16.031Z,96.10
2023-05-01T17:11:43.298Z,96.50
2023-05-01T17:14:10.156Z,96.50
2023-05-01T17:16:37.161Z,96.40
2023-05-01T17:19:08.997Z,96.50
2023-05-01T17:21:36.063Z,96.70
2023-05-01T17:24:02.908Z,96.50
2023-05-01T17:26:29.688Z,96.60
2023-05-01T17:28:56.386Z,96.60
2023-05-01T17:31:23.204Z,96.70
2023-05-01T17:33:50.167Z,96.60
2023-05-01T17:36:17.045Z,96.50
2023-05-01T17:38:44.097Z,96.70
2023-05-01T17:41:11.049Z,96.70
2023-05-01T17:43:37.913Z,96.40
2023-05-01T17:46:06.325Z,96.70
2023-05-01T17:48:33.434Z,96.70
2023-05-01T17:51:00.290Z,96.70
2023-05-01T17:53:27.143Z,96.80
2023-05-01T17:55:53.989Z,96.80
2023-05-01T17:58:21.366Z,96.90
2023-05-01T18:00:48.233Z,96.90
2023-05-01T18:03:15.193Z,96.90
2023-05-01T18:05:42.039Z,97.00
2023-05-01T18:08:08.831Z,97.00
2023-05-01T18:10:35.681Z,97.10
2023-05-01T18:13:02.409Z,97.10
2023-05-01T18:15:29.170Z,97.20
2023-05-01T18:17:56.861Z,97.20
2023-05-01T18:20:23.925Z,97.20
2023-05-01T18:22:51.133Z,97.20
2023-05-01T18:25:17.927Z,97.40
2023-05-01T18:27:45.252Z,97.30
2023-05-01T18:30:12.482Z,97.50
2023-05-01T18:32:47.033Z,97.50
2023-05-01T18:35:15.229Z,97.60
2023-05-01T18:37:42.902Z,97.70
2023-05-01T18:40:09.979Z,97.60
2023-05-01T18:42:36.752Z,97.60
2023-05-01T18:45:04.210Z,97.70
2023-05-01T18:47:32.611Z,97.60
2023-05-01T18:49:59.973Z,97.60
2023-05-01T18:52:28.019Z,97.70
2023-05-01T18:54:54.752Z,97.60
2023-05-01T18:57:22.655Z,97.70
2023-05-01T18:59:49.465Z,97.50
2023-05-01T19:02:16.390Z,97.60
2023-05-01T19:04:56.890Z,97.60
2023-05-01T19:07:25.020Z,97.80
2023-05-01T19:09:51.787Z,97.60
2023-05-01T19:12:18.541Z,97.60
2023-05-01T19:14:45.464Z,97.60
2023-05-01T19:17:12.160Z,97.80
2023-05-01T19:19:38.936Z,97.60
2023-05-01T19:22:06.474Z,97.40
2023-05-01T19:24:33.212Z,97.80
2023-05-01T19:27:00.329Z,97.60
2023-05-01T19:29:27.444Z,97.10
2023-05-01T19:31:55.207Z,97.20
2023-05-01T19:34:22.018Z,97.20
2023-05-01T19:36:48.871Z,97.30
2023-05-01T19:39:15.633Z,97.00
2023-05-01T19:41:42.453Z,97.30
2023-05-01T19:44:09.507Z,97.20
2023-05-01T19:46:36.318Z,97.50
2023-05-01T19:49:03.068Z,97.50
2023-05-01T19:51:29.858Z,97.30
2023-05-01T19:53:57.021Z,96.90
2023-05-01T19:56:25.008Z,97.00
2023-05-01T19:58:54.315Z,97.50
2023-05-01T20:01:21.296Z,97.00
2023-05-01T20:03:48.176Z,96.90
2023-05-01T20:06:15.220Z,97.10
2023-05-01T20:08:42.026Z,97.10
2023-05-01T20:11:08.865Z,97.10
2023-05-01T20:13:35.676Z,97.10
2023-05-01T20:16:02.956Z,97.10
2023-05-01T20:18:29.725Z,97.00
2023-05-01T20:20:56.534Z,97.00
2023-05-01T20:23:23.607Z,96.80
2023-05-01T20:25:52.077Z,97.00
2023-05-01T20:28:19.142Z,96.80
2023-05-01T20:30:46.609Z,96.70
2023-05-01T20:33:13.965Z,97.00
2023-05-01T20:35:41.076Z,96.90
2023-05-01T20:38:07.959Z,96.80
2023-05-01T20:40:36.204Z,97.20
2023-05-01T20:43:03.020Z,96.90
2023-05-01T20:45:29.762Z,96.80
2023-05-01T20:47:57.646Z,97.20
2023-05-01T20:50:26.003Z,96.70
2023-05-01T20:52:54.096Z,97.10
2023-05-01T20:55:21.102Z,97.10
2023-05-01T20:57:47.973Z,97.20
2023-05-01T21:00:15.318Z,96.70
2023-05-01T21:02:42.440Z,97.40
2023-05-01T21:05:12.444Z,97.30
2023-05-01T21:07:39.586Z,97.20
2023-05-01T21:10:07.053Z,97.20
2023-05-01T21:12:33.892Z,97.20
2023-05-01T21:15:01.736Z,97.10
2023-05-01T21:17:30.301Z,97.00
2023-05-01T21:19:57.448Z,96.90
2023-05-01T21:22:24.464Z,97.10
2023-05-01T21:24:58.621Z,97.00
2023-05-01T21:27:26.441Z,97.00
2023-05-01T21:29:57.058Z,96.90
2023-05-01T21:32:33.878Z,97.00
2023-05-01T21:35:01.028Z,96.90
2023-05-01T21:37:28.012Z,97.00
2023-05-01T21:39:57.079Z,97.10
2023-05-01T21:42:27.159Z,97.10
2023-05-01T21:44:54.049Z,97.10
2023-05-01T21:47:20.983Z,97.50
2023-05-01T21:49:48.060Z,97.60
2023-05-01T21:52:14.892Z,97.60
2023-05-01T21:54:41.690Z,97.60
2023-05-01T21:57:08.399Z,97.90
2023-05-01T21:59:36.339Z,97.90
2023-05-01T22:02:10.046Z,97.90
2023-05-01T22:04:37.290Z,98.10
2023-05-01T22:07:04.628Z,98.10
2023-05-01T22:09:32.072Z,98.10
2023-05-01T22:11:59.029Z,98.10
2023-05-01T22:14:33.623Z,98.10
2023-05-01T22:17:10.819Z,98.10
2023-05-01T22:19:37.919Z,98.00
2023-05-01T22:22:04.646Z,98.00
2023-05-01T22:24:31.793Z,98.00
2023-05-01T22:26:58.548Z,98.00
2023-05-01T22:29:25.417Z,98.10
2023-05-01T22:31:52.310Z,98.10
2023-05-01T22:34:19.096Z,98.10
2023-05-01T22:36:45.955Z,98.10
2023-05-01T22:39:12.837Z,98.10
2023-05-01T22:41:39.563Z,98.10
2023-05-01T22:44:06.520Z,98.10
2023-05-01T22:46:33.493Z,98.10
2023-05-01T22:49:03.269Z,98.00
2023-05-01T22:51:30.190Z,98.10
2023-05-01T22:53:57.266Z,98.10
2023-05-01T22:56:26.150Z,98.10
2023-05-01T22:58:53.010Z,98.10
2023-05-01T23:01:20.141Z,98.10
2023-05-01T23:03:47.090Z,98.20
2023-05-01T23:06:14.210Z,98.20
2023-05-01T23:08:41.513Z,98.20
2023-05-01T23:11:10.702Z,98.30
2023-05-01T23:13:40.996Z,98.30
2023-05-01T23:16:08.153Z,98.30
2023-05-01T23:18:37.099Z,98.20
2023-05-01T23:21:04.705Z,98.20
2023-05-01T23:23:34.830Z,98.20
2023-05-01T23:26:01.769Z,98.40
2023-05-01T23:28:28.965Z,98.40
2023-05-01T23:30:56.998Z,98.40
2023-05-01T23:33:27.777Z,98.20
2023-05-01T23:35:54.651Z,98.20
2023-05-01T23:38:21.519Z,98.30
2023-05-01T23:40:49.707Z,98.40
2023-05-01T23:43:16.923Z,98.40
2023-05-01T23:45:44.042Z,98.30
2023-05-01T23:48:10.962Z,98.40
2023-05-01T23:50:37.874Z,98.40
2023-05-01T23:53:08.451Z,98.50
2023-05-01T23:55:35.537Z,98.40
2023-05-01T23:58:02.558Z,98.50
